Time;durP1;ratioP1;P1;durP2;ratioP2;P2;SDS_P1;SDS_P2;PMS_P1;PMS_P2;Temp;Humidity;BMP_temperature;BMP_pressure;BME280_temperature;BME280_humidity;BME280_pressure;Samples;Min_cycle;Max_cycle;Signal;HPM_P1;HPM_P2
2022/08/18 00:01:53;;;;;;;14.05;9.63;;;19.70;99.90;;;;;;5103104;28;20178;-49
2022/08/18 00:04:19;;;;;;;14.93;9.32;;;19.70;99.90;;;;;;5094885;28;20319;-50
2022/08/18 00:06:45;;;;;;;12.82;9.50;;;19.70;99.90;;;;;;5085474;28;20570;-52
2022/08/18 00:09:11;;;;;;;14.82;10.02;;;19.70;99.90;;;;;;5095413;28;20181;-52
2022/08/18 00:11:40;;;;;;;15.27;9.88;;;19.70;99.90;;;;;;5078271;28;20178;-52
2022/08/18 00:14:07;;;;;;;12.55;9.00;;;19.70;99.90;;;;;;5094598;28;20205;-51
2022/08/18 00:16:33;;;;;;;13.63;9.43;;;19.70;99.90;;;;;;5096475;28;20178;-53
2022/08/18 00:18:59;;;;;;;9.95;8.95;;;19.70;99.90;;;;;;5103455;28;20187;-51
2022/08/18 00:21:25;;;;;;;14.35;9.60;;;19.70;99.90;;;;;;5101614;27;20570;-53
2022/08/18 00:23:50;;;;;;;11.60;8.52;;;19.70;99.90;;;;;;5076703;28;20196;-53
2022/08/18 00:26:16;;;;;;;12.70;8.98;;;19.70;99.90;;;;;;5096874;28;20559;-53
2022/08/18 00:28:42;;;;;;;14.13;9.90;;;19.70;99.90;;;;;;5092518;28;20182;-54
2022/08/18 00:31:08;;;;;;;13.32;9.10;;;19.70;99.90;;;;;;5107041;27;20614;-52
2022/08/18 00:33:34;;;;;;;12.98;9.52;;;19.80;99.90;;;;;;5076866;28;20212;-51
2022/08/18 00:36:00;;;;;;;12.13;9.90;;;19.80;99.90;;;;;;5089245;28;20185;-54
2022/08/18 00:38:25;;;;;;;13.68;8.68;;;19.80;99.90;;;;;;5099381;28;20181;-55
2022/08/18 00:40:53;;;;;;;12.48;8.70;;;19.70;99.90;;;;;;5089498;28;20209;-52
2022/08/18 00:43:32;;;;;;;12.27;8.18;;;19.80;99.90;;;;;;5096841;28;20622;-51
2022/08/18 00:45:59;;;;;;;10.18;7.45;;;19.80;99.90;;;;;;5114108;28;20169;-53
2022/08/18 00:48:25;;;;;;;9.80;7.00;;;19.80;99.90;;;;;;5113962;28;20232;-50
2022/08/18 00:50:55;;;;;;;11.63;7.32;;;19.70;99.90;;;;;;5114963;28;20213;-53
2022/08/18 00:53:26;;;;;;;10.40;6.97;;;19.70;99.90;;;;;;5104247;28;20223;-55
2022/08/18 00:55:53;;;;;;;9.15;7.32;;;19.70;99.90;;;;;;5096243;28;20226;-55
2022/08/18 00:58:37;;;;;;;8.60;7.07;;;19.70;99.90;;;;;;5094798;28;20181;-53
2022/08/18 01:01:05;;;;;;;10.02;7.80;;;19.70;99.90;;;;;;5094755;28;20197;-50
2022/08/18 01:03:32;;;;;;;10.60;8.02;;;19.60;99.90;;;;;;5097858;28;20186;-54
2022/08/18 01:06:20;;;;;;;10.43;8.23;;;19.60;99.90;;;;;;5093717;28;20549;-54
2022/08/18 01:08:45;;;;;;;12.70;8.10;;;19.60;99.90;;;;;;5095034;28;20652;-52
2022/08/18 01:11:11;;;;;;;14.73;8.60;;;19.60;99.90;;;;;;5076649;28;20229;-52
2022/08/18 01:13:40;;;;;;;15.93;7.97;;;19.50;99.90;;;;;;5095050;28;20636;-52
2022/08/18 01:21:49;;;;;;;9.43;7.63;;;19.40;99.90;;;;;;5103890;27;20188;-52
2022/08/18 01:24:17;;;;;;;11.18;7.35;;;19.40;99.90;;;;;;5107870;28;20637;-54
2022/08/18 01:26:49;;;;;;;13.68;7.93;;;19.40;99.90;;;;;;5094222;28;20166;-50
2022/08/18 01:29:17;;;;;;;15.68;7.93;;;19.40;99.90;;;;;;5094430;28;20170;-50
2022/08/18 01:31:53;;;;;;;20.40;8.20;;;19.30;99.90;;;;;;5096037;28;20261;-54
2022/08/18 01:34:23;;;;;;;13.05;7.20;;;19.30;99.90;;;;;;5105324;28;20241;-52
2022/08/18 01:36:51;;;;;;;14.65;7.63;;;19.30;99.90;;;;;;5094190;28;20186;-49
2022/08/18 01:39:17;;;;;;;12.85;8.57;;;19.30;99.90;;;;;;5100920;28;20243;-51
2022/08/18 01:41:43;;;;;;;14.43;8.40;;;19.30;99.90;;;;;;5093323;28;20224;-51
2022/08/18 01:44:10;;;;;;;17.65;9.00;;;19.30;99.90;;;;;;5093125;28;20202;-51
2022/08/18 01:46:40;;;;;;;14.57;8.52;;;19.30;99.90;;;;;;5076715;28;20213;-49
2022/08/18 01:49:07;;;;;;;14.55;8.68;;;19.30;99.90;;;;;;5101158;28;20181;-55
2022/08/18 01:51:33;;;;;;;10.63;8.20;;;19.20;99.90;;;;;;5095357;28;20220;-55
2022/08/18 01:54:00;;;;;;;16.40;8.10;;;19.20;99.90;;;;;;5111957;28;20189;-57
2022/08/18 01:56:26;;;;;;;19.95;8.43;;;19.20;99.90;;;;;;5109232;28;20174;-54
2022/08/18 01:58:54;;;;;;;16.00;8.30;;;19.20;99.90;;;;;;5076976;28;20178;-53
2022/08/18 02:01:21;;;;;;;16.45;8.07;;;19.20;99.90;;;;;;5099425;28;20333;-52
2022/08/18 02:03:53;;;;;;;16.13;8.20;;;19.20;99.90;;;;;;5092168;27;20189;-54
2022/08/18 02:06:20;;;;;;;16.10;8.00;;;19.20;99.90;;;;;;5100420;28;21120;-53
2022/08/18 02:08:46;;;;;;;14.25;7.75;;;19.10;99.90;;;;;;5092447;28;20188;-54
2022/08/18 02:11:12;;;;;;;22.27;7.95;;;19.10;99.90;;;;;;5092381;28;20341;-55
2022/08/18 02:13:39;;;;;;;14.73;8.40;;;19.10;99.90;;;;;;5093219;28;20182;-50
2022/08/18 02:16:06;;;;;;;20.58;8.50;;;19.10;99.90;;;;;;5093409;28;20743;-55
2022/08/18 02:18:34;;;;;;;13.68;8.55;;;19.10;99.90;;;;;;5099369;28;20219;-55
2022/08/18 02:21:10;;;;;;;18.15;9.32;;;19.10;99.90;;;;;;5101978;28;20217;-55
2022/08/18 02:23:36;;;;;;;20.38;8.90;;;19.10;99.90;;;;;;5092913;28;20172;-57
2022/08/18 02:26:05;;;;;;;17.42;8.20;;;19.10;99.90;;;;;;5092799;28;20174;-55
2022/08/18 02:28:31;;;;;;;17.55;9.23;;;19.10;99.90;;;;;;5091979;28;20572;-52
2022/08/18 02:30:57;;;;;;;19.15;9.10;;;19.10;99.90;;;;;;5097695;28;20676;-52
2022/08/18 02:33:22;;;;;;;21.80;8.93;;;19.10;99.90;;;;;;5093753;28;20242;-52
2022/08/18 02:35:54;;;;;;;15.02;8.98;;;19.10;99.90;;;;;;5111385;28;20188;-52
2022/08/18 02:38:20;;;;;;;16.60;9.10;;;19.00;99.90;;;;;;5062093;28;20541;-54
2022/08/18 02:40:46;;;;;;;14.70;9.18;;;19.10;99.90;;;;;;5093760;28;20184;-53
2022/08/18 02:43:11;;;;;;;19.20;9.57;;;19.00;99.90;;;;;;5109427;28;20541;-54
2022/08/18 02:45:38;;;;;;;22.20;9.85;;;19.00;99.90;;;;;;5113836;28;20220;-59
2022/08/18 02:48:05;;;;;;;14.73;10.13;;;19.00;99.90;;;;;;5098136;28;20232;-52
2022/08/18 02:50:31;;;;;;;16.95;10.52;;;19.00;99.90;;;;;;5097854;28;20297;-53
2022/08/18 02:52:57;;;;;;;22.42;10.20;;;19.10;99.90;;;;;;5111007;28;20238;-55
2022/08/18 02:55:25;;;;;;;13.80;10.63;;;19.10;99.90;;;;;;5115675;28;20573;-51
2022/08/18 02:57:51;;;;;;;19.50;11.15;;;19.10;99.90;;;;;;5081637;28;20193;-55
2022/08/18 03:00:18;;;;;;;16.77;10.73;;;19.10;99.90;;;;;;5096166;28;20590;-50
2022/08/18 03:02:50;;;;;;;23.30;11.93;;;19.10;99.90;;;;;;5102071;28;20169;-58
2022/08/18 03:05:17;;;;;;;20.30;12.20;;;19.10;99.90;;;;;;5100305;27;20190;-52
2022/08/18 03:07:43;;;;;;;19.58;11.98;;;19.10;99.90;;;;;;5077466;28;20177;-54
2022/08/18 03:10:10;;;;;;;18.85;12.73;;;19.10;99.90;;;;;;5109001;28;20680;-52
2022/08/18 03:12:35;;;;;;;21.45;14.13;;;19.10;99.90;;;;;;5112374;27;20182;-54
2022/08/18 03:15:02;;;;;;;20.05;12.75;;;19.10;99.90;;;;;;5061654;28;20189;-52
2022/08/18 03:17:28;;;;;;;24.38;14.05;;;19.10;99.90;;;;;;5096458;28;20192;-54
2022/08/18 03:19:53;;;;;;;22.25;12.90;;;19.20;99.90;;;;;;5096988;28;20270;-51
2022/08/18 03:22:19;;;;;;;21.15;13.00;;;19.20;99.90;;;;;;5087902;28;20661;-51
2022/08/18 03:24:45;;;;;;;21.27;12.32;;;19.20;99.90;;;;;;5107305;28;20185;-55
2022/08/18 03:27:11;;;;;;;21.33;13.70;;;19.20;99.90;;;;;;5078035;28;20779;-55
2022/08/18 03:29:37;;;;;;;22.92;13.27;;;19.30;99.90;;;;;;5083364;28;20232;-53
2022/08/18 03:32:05;;;;;;;23.00;13.75;;;19.30;99.90;;;;;;5096846;28;20625;-49
2022/08/18 03:34:31;;;;;;;20.45;13.65;;;19.30;99.90;;;;;;5097409;28;20172;-53
2022/08/18 03:36:57;;;;;;;20.30;13.02;;;19.30;99.90;;;;;;5107228;28;20185;-54
2022/08/18 03:39:23;;;;;;;19.95;13.05;;;19.30;99.90;;;;;;5096203;28;20194;-51
2022/08/18 03:41:53;;;;;;;20.77;15.60;;;19.30;99.90;;;;;;5091924;28;20196;-54
2022/08/18 03:44:21;;;;;;;32.40;19.70;;;19.30;99.90;;;;;;5110703;28;20170;-51
2022/08/18 03:46:49;;;;;;;24.10;16.15;;;19.30;99.90;;;;;;5110727;28;20173;-53
2022/08/18 03:49:16;;;;;;;22.10;14.48;;;19.30;99.90;;;;;;5086582;28;20185;-55
2022/08/18 03:51:45;;;;;;;21.25;14.50;;;19.30;99.90;;;;;;5083980;28;20584;-53
2022/08/18 03:54:12;;;;;;;24.27;14.13;;;19.30;99.90;;;;;;5093293;28;20174;-52
2022/08/18 03:56:40;;;;;;;24.15;15.68;;;19.40;99.90;;;;;;5085221;28;20675;-49
2022/08/18 03:59:27;;;;;;;23.27;14.90;;;19.40;99.90;;;;;;5092228;28;20290;-51
2022/08/18 04:01:54;;;;;;;21.85;15.45;;;19.40;99.90;;;;;;5095437;28;20181;-53
2022/08/18 04:04:26;;;;;;;23.50;14.88;;;19.40;99.90;;;;;;5095831;28;20174;-51
2022/08/18 04:07:13;;;;;;;24.27;14.65;;;19.40;99.90;;;;;;5077093;28;20182;-51
2022/08/18 04:09:39;;;;;;;23.00;13.57;;;19.40;99.90;;;;;;5101502;27;20219;-52
2022/08/18 04:12:11;;;;;;;18.50;13.77;;;19.40;99.90;;;;;;5092942;28;20637;-53
2022/08/18 04:14:39;;;;;;;24.70;15.10;;;19.40;99.90;;;;;;5101690;28;20704;-55
2022/08/18 04:17:05;;;;;;;20.02;15.18;;;19.40;99.90;;;;;;5105503;28;20656;-54
2022/08/18 04:19:33;;;;;;;24.55;15.00;;;19.40;99.90;;;;;;5099722;28;20200;-52
2022/08/18 04:22:01;;;;;;;22.90;14.45;;;19.40;99.90;;;;;;5095295;28;20194;-52
2022/08/18 04:24:29;;;;;;;23.23;14.07;;;19.40;99.90;;;;;;5102800;28;20190;-51
2022/08/18 04:26:56;;;;;;;20.48;14.50;;;19.40;99.90;;;;;;5094801;28;20645;-53
2022/08/18 04:29:23;;;;;;;23.52;14.48;;;19.40;99.90;;;;;;5090639;28;20181;-55
2022/08/18 04:31:50;;;;;;;20.02;15.15;;;19.40;99.90;;;;;;5097377;28;20184;-53
2022/08/18 04:34:19;;;;;;;25.70;16.02;;;19.40;99.90;;;;;;5076329;28;20178;-52
2022/08/18 04:36:45;;;;;;;31.27;15.38;;;19.40;99.90;;;;;;5104076;28;20208;-54
2022/08/18 04:39:12;;;;;;;25.20;15.73;;;19.40;99.90;;;;;;5110390;28;20223;-56
2022/08/18 04:41:42;;;;;;;20.58;16.05;;;19.40;99.90;;;;;;5087712;28;20184;-54
2022/08/18 04:44:09;;;;;;;23.63;17.95;;;19.50;99.90;;;;;;5110618;28;20174;-51
2022/08/18 04:46:42;;;;;;;23.42;18.98;;;19.50;99.90;;;;;;5102521;28;20186;-54
2022/08/18 04:49:10;;;;;;;21.50;16.58;;;19.50;99.90;;;;;;5108958;28;20668;-52
2022/08/18 04:51:43;;;;;;;23.15;16.75;;;19.50;99.90;;;;;;5095502;28;20189;-49
2022/08/18 04:54:11;;;;;;;27.15;17.10;;;19.50;99.90;;;;;;5109852;28;20642;-50
2022/08/18 04:56:38;;;;;;;25.00;17.52;;;19.50;99.90;;;;;;5102108;28;20278;-52
2022/08/18 04:59:12;;;;;;;26.48;17.10;;;19.50;99.90;;;;;;5111180;28;20262;-53
2022/08/18 05:01:46;;;;;;;21.70;16.58;;;19.50;99.90;;;;;;5109284;28;20275;-51
2022/08/18 05:04:15;;;;;;;28.33;17.25;;;19.40;99.90;;;;;;5085451;28;20185;-54
2022/08/18 05:06:43;;;;;;;24.85;16.55;;;19.40;99.90;;;;;;5075531;28;20174;-55
2022/08/18 05:09:12;;;;;;;25.50;16.88;;;19.50;99.90;;;;;;5096231;27;20190;-54
2022/08/18 05:11:38;;;;;;;24.58;16.30;;;19.40;99.90;;;;;;5094237;28;20181;-49
2022/08/18 05:14:07;;;;;;;26.73;17.52;;;19.50;99.90;;;;;;5096046;28;20189;-49
2022/08/18 05:16:35;;;;;;;24.20;16.58;;;19.40;99.90;;;;;;5094487;27;20668;-49
2022/08/18 05:19:03;;;;;;;28.77;16.77;;;19.50;99.90;;;;;;5099488;28;20182;-54
2022/08/18 05:21:29;;;;;;;25.38;16.15;;;19.40;99.90;;;;;;5083707;28;20187;-54
2022/08/18 05:23:55;;;;;;;26.85;16.33;;;19.40;99.90;;;;;;5109268;28;20621;-57
2022/08/18 05:26:20;;;;;;;22.38;16.40;;;19.50;99.90;;;;;;5077041;28;20572;-52
2022/08/18 05:28:48;;;;;;;22.17;14.18;;;19.40;99.90;;;;;;5096846;28;20245;-49
2022/08/18 05:31:18;;;;;;;23.02;12.98;;;19.50;99.90;;;;;;5093689;28;20216;-56
2022/08/18 05:33:45;;;;;;;22.92;13.25;;;19.50;99.90;;;;;;5074980;28;20257;-54
2022/08/18 05:36:23;;;;;;;19.13;11.70;;;19.50;99.90;;;;;;5093919;28;20184;-52
2022/08/18 05:39:14;;;;;;;17.00;11.50;;;19.50;99.90;;;;;;5089524;28;20192;-53
2022/08/18 05:41:43;;;;;;;19.42;9.57;;;19.60;99.90;;;;;;5108365;28;20178;-50
2022/08/18 05:44:14;;;;;;;14.88;9.70;;;19.60;99.90;;;;;;5109749;28;20223;-54
2022/08/18 05:46:57;;;;;;;12.50;10.38;;;19.60;99.90;;;;;;5103964;28;20234;-55
2022/08/18 05:49:25;;;;;;;17.48;10.70;;;19.60;99.90;;;;;;5098670;28;20198;-53
2022/08/18 05:51:58;;;;;;;18.90;10.65;;;19.60;99.90;;;;;;5106518;28;20199;-54
2022/08/18 05:57:18;;;;;;;18.05;9.43;;;19.70;99.90;;;;;;5107001;28;20640;-54
2022/08/18 05:59:45;;;;;;;14.50;9.60;;;19.60;99.90;;;;;;5104664;28;20587;-54
2022/08/18 06:02:32;;;;;;;17.63;11.05;;;19.70;99.90;;;;;;5093284;28;20724;-52
2022/08/18 06:05:19;;;;;;;14.68;10.05;;;19.70;99.90;;;;;;5075021;28;20633;-55
2022/08/18 06:07:59;;;;;;;15.18;9.80;;;19.70;99.90;;;;;;5084710;28;20276;-53
2022/08/18 06:10:26;;;;;;;16.88;10.27;;;19.80;99.90;;;;;;5081965;28;20836;-52
2022/08/18 06:12:56;;;;;;;12.48;9.80;;;19.80;99.90;;;;;;5093347;28;20181;-55
2022/08/18 06:15:50;;;;;;;14.90;10.18;;;19.80;99.90;;;;;;5102065;28;20224;-53
2022/08/18 06:18:48;;;;;;;11.10;8.73;;;19.80;99.90;;;;;;5102798;28;20177;-56
2022/08/18 06:21:28;;;;;;;12.85;9.15;;;19.80;99.90;;;;;;5095936;28;20211;-54
2022/08/18 06:24:14;;;;;;;11.02;9.43;;;19.80;99.90;;;;;;5102852;28;20243;-52
2022/08/18 06:26:56;;;;;;;14.70;8.57;;;19.90;99.90;;;;;;5104274;28;20181;-55
2022/08/18 06:29:55;;;;;;;15.18;9.07;;;19.90;99.90;;;;;;5104321;28;20185;-55
2022/08/18 06:32:41;;;;;;;13.18;9.07;;;19.90;99.90;;;;;;5108756;28;20241;-57
2022/08/18 06:35:25;;;;;;;10.13;8.70;;;19.90;99.90;;;;;;5102957;28;20177;-56
2022/08/18 06:40:48;;;;;;;14.27;11.43;;;20.00;99.90;;;;;;5096264;28;20185;-54
2022/08/18 06:43:16;;;;;;;16.58;11.73;;;20.00;99.90;;;;;;5075068;28;20185;-57
2022/08/18 06:45:47;;;;;;;10.80;9.43;;;20.00;99.90;;;;;;5073028;28;20558;-54
2022/08/18 06:48:43;;;;;;;10.70;8.70;;;20.00;99.90;;;;;;5078883;28;20225;-53
2022/08/18 06:51:19;;;;;;;14.88;9.00;;;20.10;99.90;;;;;;5087757;28;20217;-53
2022/08/18 06:53:56;;;;;;;13.98;9.30;;;20.10;99.90;;;;;;5089804;28;20193;-53
2022/08/18 06:56:39;;;;;;;11.02;9.18;;;20.10;99.90;;;;;;5079582;28;20190;-54
2022/08/18 06:59:19;;;;;;;12.25;7.97;;;20.10;99.90;;;;;;5086901;28;20182;-53
2022/08/18 07:01:49;;;;;;;12.85;8.48;;;20.20;99.90;;;;;;5074547;28;20195;-50
2022/08/18 07:04:41;;;;;;;13.13;7.55;;;20.20;99.90;;;;;;5080954;28;20178;-52
2022/08/18 07:07:29;;;;;;;12.30;8.02;;;20.30;99.90;;;;;;5084729;28;20219;-53
2022/08/18 07:09:55;;;;;;;11.77;7.50;;;20.40;99.90;;;;;;5079206;28;20210;-55
2022/08/18 07:12:25;;;;;;;7.00;5.88;;;20.40;99.90;;;;;;5084533;28;20276;-59
2022/08/18 07:15:00;;;;;;;9.32;5.28;;;20.50;99.90;;;;;;5080391;28;20186;-57
2022/08/18 07:17:31;;;;;;;8.82;5.22;;;20.50;99.90;;;;;;5087740;28;20311;-58
2022/08/18 07:20:19;;;;;;;12.48;5.15;;;20.60;99.90;;;;;;5086257;28;20263;-51
2022/08/18 07:23:03;;;;;;;7.72;5.00;;;20.70;99.90;;;;;;5071749;28;20597;-52
2022/08/18 07:25:41;;;;;;;7.63;5.45;;;20.70;99.90;;;;;;5075604;28;20239;-49
2022/08/18 07:28:32;;;;;;;8.15;5.70;;;20.80;99.90;;;;;;5071711;28;20178;-54
2022/08/18 07:31:30;;;;;;;6.60;5.72;;;20.80;99.90;;;;;;5076301;28;20760;-48
2022/08/18 07:34:03;;;;;;;7.53;5.90;;;20.90;99.90;;;;;;5078699;28;20174;-51
2022/08/18 07:36:37;;;;;;;6.63;5.93;;;21.00;99.90;;;;;;5087882;28;20192;-56
2022/08/18 07:39:24;;;;;;;8.07;5.50;;;21.10;99.90;;;;;;5077109;28;20174;-49
2022/08/18 07:42:16;;;;;;;10.00;5.50;;;21.10;99.90;;;;;;5083385;28;20190;-52
2022/08/18 07:44:59;;;;;;;5.43;4.90;;;21.10;99.90;;;;;;5083194;28;20278;-49
2022/08/18 07:47:50;;;;;;;6.10;4.60;;;21.20;99.90;;;;;;5089201;28;20230;-49
2022/08/18 07:50:17;;;;;;;5.50;4.22;;;21.20;99.90;;;;;;5082898;28;20209;-53
2022/08/18 07:52:56;;;;;;;5.82;4.47;;;21.30;99.90;;;;;;5076511;28;20179;-51
2022/08/18 07:55:28;;;;;;;6.13;3.97;;;21.30;99.90;;;;;;5107836;28;20182;-51
2022/08/18 07:58:16;;;;;;;4.00;3.60;;;21.40;99.90;;;;;;5089376;28;20189;-52
2022/08/18 08:01:12;;;;;;;4.68;3.60;;;21.40;99.90;;;;;;5087559;28;20178;-57
2022/08/18 08:04:02;;;;;;;6.82;4.70;;;21.50;99.90;;;;;;5095835;28;20208;-47
2022/08/18 08:07:01;;;;;;;3.97;3.50;;;21.60;99.90;;;;;;5075702;28;20251;-52
2022/08/18 08:09:45;;;;;;;3.72;2.90;;;21.60;99.90;;;;;;5085939;28;20191;-49
2022/08/18 08:12:29;;;;;;;4.88;3.00;;;21.60;99.90;;;;;;5087045;28;20213;-51
2022/08/18 08:15:38;;;;;;;5.47;3.30;;;21.70;99.90;;;;;;5083904;28;20219;-48
2022/08/18 08:18:28;;;;;;;3.63;2.70;;;21.80;99.90;;;;;;5073853;28;20211;-54
2022/08/18 08:20:59;;;;;;;3.58;2.72;;;21.80;99.90;;;;;;5076028;28;20558;-53
2022/08/18 08:23:43;;;;;;;4.15;2.80;;;21.90;99.90;;;;;;5066678;28;20193;-54
2022/08/18 08:26:33;;;;;;;2.97;2.45;;;22.00;99.90;;;;;;5088920;28;20189;-50
2022/08/18 08:29:17;;;;;;;5.45;2.88;;;22.10;99.90;;;;;;5082333;28;20274;-48
2022/08/18 08:32:21;;;;;;;3.67;2.53;;;22.20;99.90;;;;;;5084642;28;20190;-54
2022/08/18 08:35:12;;;;;;;3.88;2.65;;;22.30;99.90;;;;;;5063410;28;20281;-49
2022/08/18 08:38:00;;;;;;;4.68;2.45;;;22.40;99.90;;;;;;5077583;28;20205;-49
2022/08/18 08:40:36;;;;;;;4.63;2.22;;;22.50;99.90;;;;;;5076329;28;20201;-55
2022/08/18 08:43:18;;;;;;;5.45;2.22;;;22.50;99.90;;;;;;5079928;28;20217;-52
2022/08/18 08:46:07;;;;;;;4.20;2.28;;;22.60;99.90;;;;;;5089354;28;20186;-51
2022/08/18 08:48:38;;;;;;;5.57;2.30;;;22.70;99.90;;;;;;5106513;28;20248;-53
2022/08/18 08:51:26;;;;;;;4.25;2.60;;;22.70;99.90;;;;;;5097501;28;20219;-50
2022/08/18 08:54:00;;;;;;;4.82;2.83;;;22.80;99.90;;;;;;5101063;28;20178;-51
2022/08/18 08:56:32;;;;;;;5.00;2.70;;;22.70;99.90;;;;;;5088243;28;20187;-53
2022/08/18 08:59:10;;;;;;;3.30;2.20;;;22.70;99.90;;;;;;5089138;28;20185;-53
2022/08/18 09:02:02;;;;;;;5.03;2.80;;;22.70;99.90;;;;;;5101417;28;20721;-54
2022/08/18 09:04:50;;;;;;;5.82;3.78;;;22.70;99.90;;;;;;5103629;27;20181;-54
2022/08/18 09:07:49;;;;;;;5.00;2.83;;;22.60;99.90;;;;;;5101493;28;20186;-54
2022/08/18 09:10:23;;;;;;;6.43;3.20;;;22.60;99.90;;;;;;5058558;28;20226;-56
2022/08/18 09:13:18;;;;;;;6.40;3.30;;;22.70;99.90;;;;;;5094051;28;20235;-53
2022/08/18 09:15:56;;;;;;;5.57;3.88;;;22.70;99.90;;;;;;5102816;28;20185;-51
2022/08/18 09:18:27;;;;;;;7.28;3.70;;;22.70;99.90;;;;;;5090968;28;20174;-53
2022/08/18 09:21:27;;;;;;;7.20;3.20;;;22.70;99.90;;;;;;5094977;28;20190;-53
2022/08/18 09:24:10;;;;;;;9.60;3.40;;;22.80;99.90;;;;;;5096055;28;20543;-52
2022/08/18 09:26:52;;;;;;;6.50;3.28;;;22.80;99.90;;;;;;5101580;28;20651;-50
2022/08/18 09:29:58;;;;;;;6.28;3.42;;;22.90;99.90;;;;;;5103844;28;20201;-53
2022/08/18 09:32:24;;;;;;;7.93;3.13;;;22.90;99.90;;;;;;5099238;27;20193;-52
2022/08/18 09:35:18;;;;;;;5.85;3.03;;;23.00;99.90;;;;;;5088413;28;20264;-50
2022/08/18 09:44:13;;;;;;;9.95;3.47;;;23.10;99.90;;;;;;5097559;27;20174;-53
2022/08/18 09:46:41;;;;;;;10.13;3.63;;;23.00;99.90;;;;;;5089445;28;20217;-51
2022/08/18 09:49:24;;;;;;;8.40;3.72;;;23.00;99.90;;;;;;5106429;28;20217;-47
2022/08/18 09:52:20;;;;;;;8.57;4.18;;;23.10;99.90;;;;;;5103663;28;20189;-49
2022/08/18 09:54:57;;;;;;;5.45;3.50;;;23.10;99.90;;;;;;5095512;28;20260;-50
2022/08/18 09:57:30;;;;;;;4.07;3.30;;;23.20;99.90;;;;;;5103142;28;20189;-50
2022/08/18 10:00:02;;;;;;;6.93;3.95;;;23.20;99.90;;;;;;5093369;28;20186;-51
2022/08/18 10:02:34;;;;;;;7.18;3.47;;;23.30;99.90;;;;;;5093044;28;20718;-51
2022/08/18 10:05:26;;;;;;;7.20;3.20;;;23.30;99.90;;;;;;5097033;28;20178;-50
2022/08/18 10:08:04;;;;;;;5.60;3.05;;;23.30;99.90;;;;;;5099645;28;20200;-47
2022/08/18 10:10:43;;;;;;;4.70;3.17;;;23.40;99.90;;;;;;5095038;28;20257;-52
2022/08/18 10:13:14;;;;;;;6.97;3.78;;;23.40;99.90;;;;;;5100228;28;20190;-54
2022/08/18 10:15:58;;;;;;;7.78;3.30;;;23.50;99.90;;;;;;5098582;28;20727;-53
2022/08/18 10:18:42;;;;;;;6.35;3.13;;;23.70;99.90;;;;;;5107271;28;20224;-50
2022/08/18 10:21:19;;;;;;;7.72;3.47;;;23.70;99.90;;;;;;5091510;28;20591;-51
2022/08/18 10:23:58;;;;;;;9.07;3.28;;;23.90;99.90;;;;;;5083554;28;20172;-50
2022/08/18 10:26:30;;;;;;;4.78;2.97;;;24.10;99.90;;;;;;5110584;28;20180;-49
2022/08/18 10:29:10;;;;;;;10.38;3.85;;;24.20;99.90;;;;;;5107884;28;20298;-51
2022/08/18 10:31:58;;;;;;;7.78;3.30;;;24.40;99.90;;;;;;5099018;28;20312;-49
2022/08/18 10:34:41;;;;;;;10.60;2.70;;;24.50;99.90;;;;;;5101703;28;20263;-55
2022/08/18 10:37:34;;;;;;;4.97;2.70;;;24.60;99.90;;;;;;5106425;28;20547;-52
2022/08/18 10:40:12;;;;;;;9.05;2.80;;;24.70;99.90;;;;;;5097135;28;20205;-50
2022/08/18 10:42:53;;;;;;;9.77;3.70;;;24.80;99.90;;;;;;5093034;28;20178;-51
2022/08/18 10:45:35;;;;;;;7.18;3.05;;;24.90;99.90;;;;;;5086339;28;20189;-53
2022/08/18 10:48:04;;;;;;;3.78;2.47;;;25.00;99.90;;;;;;5093862;28;20233;-52
2022/08/18 10:50:48;;;;;;;6.05;2.70;;;25.20;99.90;;;;;;5098981;28;20212;-55
2022/08/18 10:53:51;;;;;;;8.45;2.78;;;25.30;99.90;;;;;;5109757;28;20191;-53
2022/08/18 10:56:31;;;;;;;5.75;2.65;;;25.40;99.90;;;;;;5053264;28;20193;-53
2022/08/18 10:59:16;;;;;;;4.18;2.50;;;25.50;99.90;;;;;;5099667;28;20296;-53
2022/08/18 11:02:19;;;;;;;3.88;2.83;;;25.40;99.90;;;;;;5089229;28;20230;-53
2022/08/18 11:04:50;;;;;;;4.55;2.42;;;25.20;99.90;;;;;;5097669;28;20207;-53
2022/08/18 11:07:22;;;;;;;4.75;2.90;;;25.20;99.90;;;;;;5098335;28;20243;-51
2022/08/18 11:09:55;;;;;;;9.73;3.00;;;25.00;99.90;;;;;;5108194;28;20209;-48
2022/08/18 11:12:50;;;;;;;9.02;3.20;;;24.90;99.90;;;;;;5095319;28;20192;-57
2022/08/18 11:15:27;;;;;;;9.07;2.83;;;24.70;99.90;;;;;;5105056;28;20174;-50
2022/08/18 11:17:58;;;;;;;8.95;2.92;;;24.60;99.90;;;;;;5082137;28;20235;-54
2022/08/18 11:20:30;;;;;;;5.13;2.40;;;24.50;99.90;;;;;;5103745;28;20259;-50
2022/08/18 11:23:01;;;;;;;5.40;2.90;;;24.50;99.90;;;;;;5110028;28;20186;-51
2022/08/18 11:25:30;;;;;;;6.57;3.08;;;24.50;99.90;;;;;;5095849;28;20667;-49
2022/08/18 11:27:57;;;;;;;5.43;2.97;;;24.50;99.90;;;;;;5096133;28;20166;-51
2022/08/18 11:30:31;;;;;;;5.00;2.70;;;24.50;99.90;;;;;;5101133;28;20214;-52
2022/08/18 11:32:58;;;;;;;5.88;2.72;;;24.50;99.90;;;;;;5094730;28;20189;-53
2022/08/18 11:35:32;;;;;;;8.85;3.35;;;24.60;99.90;;;;;;5114243;28;20628;-47
2022/08/18 11:38:12;;;;;;;5.57;2.60;;;24.70;99.90;;;;;;5113386;28;20188;-47
2022/08/18 11:40:54;;;;;;;7.65;2.47;;;24.80;99.90;;;;;;5115787;28;20188;-49
2022/08/18 11:43:33;;;;;;;4.53;3.08;;;24.90;99.90;;;;;;5111803;28;20254;-54
2022/08/18 11:46:10;;;;;;;8.07;2.97;;;24.90;99.90;;;;;;5103485;28;20173;-51
2022/08/18 11:48:39;;;;;;;5.88;2.92;;;25.00;99.90;;;;;;5089819;28;20225;-53
2022/08/18 11:51:28;;;;;;;4.82;2.90;;;25.20;99.90;;;;;;5094434;28;20231;-51
2022/08/18 11:53:58;;;;;;;7.22;3.05;;;25.40;99.90;;;;;;5107198;28;20197;-52
2022/08/18 11:56:30;;;;;;;7.32;3.00;;;25.60;99.90;;;;;;5101879;28;20315;-51
2022/08/18 11:59:03;;;;;;;5.85;2.92;;;25.80;99.90;;;;;;5085821;28;20276;-46
2022/08/18 12:01:32;;;;;;;5.53;3.05;;;26.10;99.90;;;;;;5095660;28;20285;-50
2022/08/18 12:04:12;;;;;;;4.13;2.38;;;26.40;99.90;;;;;;5098583;28;20186;-52
2022/08/18 12:06:44;;;;;;;6.97;2.55;;;26.60;99.90;;;;;;5096293;28;20182;-51
2022/08/18 12:09:18;;;;;;;7.00;3.40;;;26.90;99.90;;;;;;5108585;28;20180;-49
2022/08/18 12:11:57;;;;;;;6.18;3.17;;;27.10;99.90;;;;;;5095763;28;20209;-49
2022/08/18 12:14:26;;;;;;;8.15;3.22;;;27.30;99.90;;;;;;5094836;28;20651;-52
2022/08/18 12:16:53;;;;;;;6.43;2.90;;;27.40;99.90;;;;;;5101965;28;20655;-52
2022/08/18 12:19:20;;;;;;;5.88;3.30;;;27.50;99.90;;;;;;5113118;28;20674;-52
2022/08/18 12:21:52;;;;;;;8.02;3.63;;;27.60;99.80;;;;;;5093486;28;20178;-51
2022/08/18 12:24:23;;;;;;;10.40;3.47;;;27.70;99.30;;;;;;5094196;28;20182;-47
2022/08/18 12:26:50;;;;;;;6.32;3.10;;;27.70;98.90;;;;;;5095201;28;20174;-47
2022/08/18 12:29:17;;;;;;;5.38;2.72;;;27.70;98.60;;;;;;5095186;28;20181;-50
2022/08/18 12:31:51;;;;;;;3.75;2.60;;;27.70;98.20;;;;;;5097005;28;20234;-53
2022/08/18 12:34:22;;;;;;;5.90;2.72;;;27.60;98.00;;;;;;5106772;28;20289;-47
2022/08/18 12:36:50;;;;;;;8.50;2.90;;;27.60;97.70;;;;;;5077865;28;20659;-46
2022/08/18 12:39:16;;;;;;;6.45;2.72;;;27.50;97.60;;;;;;5098965;28;20697;-53
2022/08/18 12:41:42;;;;;;;4.10;2.40;;;27.40;97.60;;;;;;5105604;28;20715;-51
2022/08/18 12:44:08;;;;;;;6.20;2.63;;;27.30;97.70;;;;;;5099925;28;20262;-52
2022/08/18 12:46:34;;;;;;;6.18;2.80;;;27.30;97.60;;;;;;5094434;28;20193;-49
2022/08/18 12:49:01;;;;;;;6.15;2.80;;;27.20;97.60;;;;;;5106033;28;20308;-52
2022/08/18 12:51:27;;;;;;;6.70;2.95;;;27.10;97.60;;;;;;5079196;28;20218;-49
2022/08/18 12:53:53;;;;;;;4.68;2.70;;;27.00;97.60;;;;;;5094662;28;20238;-49
2022/08/18 12:56:25;;;;;;;6.05;2.70;;;26.90;97.50;;;;;;5064722;28;20197;-49
2022/08/18 12:58:51;;;;;;;6.93;2.58;;;26.90;97.50;;;;;;5111745;28;20177;-52
2022/08/18 13:01:18;;;;;;;5.18;2.80;;;26.80;97.40;;;;;;5096362;28;20689;-53
2022/08/18 13:03:47;;;;;;;6.13;2.72;;;26.80;97.30;;;;;;5090955;28;20178;-52
2022/08/18 13:06:14;;;;;;;10.88;3.65;;;26.70;97.40;;;;;;5094972;28;20200;-54
2022/08/18 13:08:40;;;;;;;6.45;2.92;;;26.70;97.60;;;;;;5110421;28;20186;-49
2022/08/18 13:11:09;;;;;;;5.35;3.30;;;26.60;97.50;;;;;;5103543;28;20211;-55
2022/08/18 13:13:39;;;;;;;4.60;2.65;;;26.60;97.80;;;;;;5076275;28;20185;-53
2022/08/18 13:16:08;;;;;;;8.10;3.53;;;26.50;98.40;;;;;;5093589;28;20659;-51
2022/08/18 13:18:40;;;;;;;7.22;2.97;;;26.50;98.20;;;;;;5112464;28;20181;-53
2022/08/18 13:21:09;;;;;;;5.05;2.80;;;26.40;98.00;;;;;;5113532;28;20177;-55
2022/08/18 13:23:35;;;;;;;8.45;3.08;;;26.40;98.00;;;;;;5101346;28;20166;-53
2022/08/18 13:26:01;;;;;;;9.45;3.53;;;26.30;97.90;;;;;;5093960;28;20182;-52
2022/08/18 13:28:31;;;;;;;6.68;3.33;;;26.30;97.80;;;;;;5094099;28;20178;-57
2022/08/18 13:30:57;;;;;;;4.70;3.30;;;26.30;98.10;;;;;;5101001;28;20564;-50